sensor_id;sensor_type;location;lat;lon;timestamp;temperature;humidity
51801;DHT22;37855;53.204;6.568;2022-11-18T00:00:04;7.20;81.20
51801;DHT22;37855;53.204;6.568;2022-11-18T00:02:30;7.20;81.20
51801;DHT22;37855;53.204;6.568;2022-11-18T00:04:55;7.20;81.30
51801;DHT22;37855;53.204;6.568;2022-11-18T00:07:21;7.20;81.30
51801;DHT22;37855;53.204;6.568;2022-11-18T00:09:46;7.20;81.30
51801;DHT22;37855;53.204;6.568;2022-11-18T00:12:12;7.20;81.20
51801;DHT22;37855;53.204;6.568;2022-11-18T00:14:56;7.20;81.10
51801;DHT22;37855;53.204;6.568;2022-11-18T00:17:22;7.20;81.10
51801;DHT22;37855;53.204;6.568;2022-11-18T00:19:48;7.20;81.00
51801;DHT22;37855;53.204;6.568;2022-11-18T00:22:15;7.20;81.10
51801;DHT22;37855;53.204;6.568;2022-11-18T00:24:41;7.20;81.10
51801;DHT22;37855;53.204;6.568;2022-11-18T00:27:06;7.20;81.20
51801;DHT22;37855;53.204;6.568;2022-11-18T00:29:44;7.20;81.20
51801;DHT22;37855;53.204;6.568;2022-11-18T00:32:14;7.20;81.20
51801;DHT22;37855;53.204;6.568;2022-11-18T00:34:40;7.20;81.20
51801;DHT22;37855;53.204;6.568;2022-11-18T00:40:12;7.30;81.10
51801;DHT22;37855;53.204;6.568;2022-11-18T00:42:39;7.30;81.00
51801;DHT22;37855;53.204;6.568;2022-11-18T00:45:19;7.30;81.00
51801;DHT22;37855;53.204;6.568;2022-11-18T00:47:45;7.20;81.00
51801;DHT22;37855;53.204;6.568;2022-11-18T00:50:14;7.20;81.00
51801;DHT22;37855;53.204;6.568;2022-11-18T00:52:41;7.20;81.00
51801;DHT22;37855;53.204;6.568;2022-11-18T00:55:08;7.20;81.00
51801;DHT22;37855;53.204;6.568;2022-11-18T00:57:34;7.20;81.00
51801;DHT22;37855;53.204;6.568;2022-11-18T00:59:59;7.20;81.00
51801;DHT22;37855;53.204;6.568;2022-11-18T01:02:25;7.20;81.00
51801;DHT22;37855;53.204;6.568;2022-11-18T01:04:51;7.20;81.00
51801;DHT22;37855;53.204;6.568;2022-11-18T01:07:17;7.10;81.10
51801;DHT22;37855;53.204;6.568;2022-11-18T01:09:43;7.20;81.00
51801;DHT22;37855;53.204;6.568;2022-11-18T01:12:10;7.10;81.10
51801;DHT22;37855;53.204;6.568;2022-11-18T01:14:54;7.10;81.20
51801;DHT22;37855;53.204;6.568;2022-11-18T01:17:20;7.10;81.30
51801;DHT22;37855;53.204;6.568;2022-11-18T01:19:50;7.20;81.20
51801;DHT22;37855;53.204;6.568;2022-11-18T01:22:24;7.10;81.30
51801;DHT22;37855;53.204;6.568;2022-11-18T01:24:50;7.20;81.00
51801;DHT22;37855;53.204;6.568;2022-11-18T01:27:17;7.10;81.20
51801;DHT22;37855;53.204;6.568;2022-11-18T01:29:42;7.10;81.20
51801;DHT22;37855;53.204;6.568;2022-11-18T01:32:08;7.10;81.30
51801;DHT22;37855;53.204;6.568;2022-11-18T01:34:34;7.10;81.20
51801;DHT22;37855;53.204;6.568;2022-11-18T01:37:08;7.20;81.20
51801;DHT22;37855;53.204;6.568;2022-11-18T01:39:37;7.10;81.30
51801;DHT22;37855;53.204;6.568;2022-11-18T01:42:03;7.20;81.20
51801;DHT22;37855;53.204;6.568;2022-11-18T01:47:54;7.20;81.10
51801;DHT22;37855;53.204;6.568;2022-11-18T01:50:23;7.10;81.10
51801;DHT22;37855;53.204;6.568;2022-11-18T01:52:50;7.10;81.10
51801;DHT22;37855;53.204;6.568;2022-11-18T01:55:20;7.10;81.10
51801;DHT22;37855;53.204;6.568;2022-11-18T01:57:49;7.20;81.00
51801;DHT22;37855;53.204;6.568;2022-11-18T02:00:16;7.10;81.10
51801;DHT22;37855;53.204;6.568;2022-11-18T02:02:45;7.20;81.10
51801;DHT22;37855;53.204;6.568;2022-11-18T02:05:35;7.20;81.10
51801;DHT22;37855;53.204;6.568;2022-11-18T02:08:05;7.20;81.00
51801;DHT22;37855;53.204;6.568;2022-11-18T02:10:32;7.10;81.00
51801;DHT22;37855;53.204;6.568;2022-11-18T02:13:01;7.10;81.00
51801;DHT22;37855;53.204;6.568;2022-11-18T02:15:45;7.10;81.00
51801;DHT22;37855;53.204;6.568;2022-11-18T02:18:34;7.10;80.90
51801;DHT22;37855;53.204;6.568;2022-11-18T02:21:28;7.10;81.00
51801;DHT22;37855;53.204;6.568;2022-11-18T02:27:29;7.10;81.00
51801;DHT22;37855;53.204;6.568;2022-11-18T02:30:15;7.00;80.90
51801;DHT22;37855;53.204;6.568;2022-11-18T02:32:57;7.00;80.90
51801;DHT22;37855;53.204;6.568;2022-11-18T02:35:46;7.00;80.90
51801;DHT22;37855;53.204;6.568;2022-11-18T02:38:26;7.00;80.90
51801;DHT22;37855;53.204;6.568;2022-11-18T02:40:57;6.90;81.00
51801;DHT22;37855;53.204;6.568;2022-11-18T02:43:38;6.90;81.10
51801;DHT22;37855;53.204;6.568;2022-11-18T02:46:10;6.90;81.30
51801;DHT22;37855;53.204;6.568;2022-11-18T02:48:46;6.80;81.30
51801;DHT22;37855;53.204;6.568;2022-11-18T02:51:27;6.90;81.30
51801;DHT22;37855;53.204;6.568;2022-11-18T02:54:05;6.90;81.00
51801;DHT22;37855;53.204;6.568;2022-11-18T02:56:33;6.90;81.00
51801;DHT22;37855;53.204;6.568;2022-11-18T02:58:59;6.90;81.20
51801;DHT22;37855;53.204;6.568;2022-11-18T03:01:29;6.90;81.20
51801;DHT22;37855;53.204;6.568;2022-11-18T03:04:02;6.90;81.20
51801;DHT22;37855;53.204;6.568;2022-11-18T03:06:37;6.90;81.20
51801;DHT22;37855;53.204;6.568;2022-11-18T03:09:27;6.90;81.10
51801;DHT22;37855;53.204;6.568;2022-11-18T03:17:58;6.90;81.10
51801;DHT22;37855;53.204;6.568;2022-11-18T03:20:28;6.90;81.10
51801;DHT22;37855;53.204;6.568;2022-11-18T03:23:00;6.80;81.00
51801;DHT22;37855;53.204;6.568;2022-11-18T03:25:58;6.80;81.00
51801;DHT22;37855;53.204;6.568;2022-11-18T03:34:39;6.70;81.00
51801;DHT22;37855;53.204;6.568;2022-11-18T03:37:14;6.80;81.00
51801;DHT22;37855;53.204;6.568;2022-11-18T03:39:45;6.70;80.90
51801;DHT22;37855;53.204;6.568;2022-11-18T03:42:18;6.80;80.90
51801;DHT22;37855;53.204;6.568;2022-11-18T03:44:53;6.80;80.80
51801;DHT22;37855;53.204;6.568;2022-11-18T03:47:31;6.80;80.70
51801;DHT22;37855;53.204;6.568;2022-11-18T03:50:04;6.80;80.70
51801;DHT22;37855;53.204;6.568;2022-11-18T03:52:36;6.80;80.70
51801;DHT22;37855;53.204;6.568;2022-11-18T03:55:11;6.80;80.70
51801;DHT22;37855;53.204;6.568;2022-11-18T03:57:55;6.80;80.70
51801;DHT22;37855;53.204;6.568;2022-11-18T04:00:24;6.80;80.50
51801;DHT22;37855;53.204;6.568;2022-11-18T04:02:57;6.70;80.40
51801;DHT22;37855;53.204;6.568;2022-11-18T04:05:36;6.70;80.60
51801;DHT22;37855;53.204;6.568;2022-11-18T04:08:34;6.70;80.50
51801;DHT22;37855;53.204;6.568;2022-11-18T04:11:13;6.60;80.60
51801;DHT22;37855;53.204;6.568;2022-11-18T04:14:03;6.60;80.60
51801;DHT22;37855;53.204;6.568;2022-11-18T04:16:40;6.60;80.70
51801;DHT22;37855;53.204;6.568;2022-11-18T04:19:08;6.70;80.70
51801;DHT22;37855;53.204;6.568;2022-11-18T04:21:34;6.70;80.60
51801;DHT22;37855;53.204;6.568;2022-11-18T04:24:12;6.70;80.70
51801;DHT22;37855;53.204;6.568;2022-11-18T04:26:41;6.60;80.50
51801;DHT22;37855;53.204;6.568;2022-11-18T04:29:07;6.60;80.60
51801;DHT22;37855;53.204;6.568;2022-11-18T04:31:58;6.70;80.70
51801;DHT22;37855;53.204;6.568;2022-11-18T04:34:25;6.70;80.60
51801;DHT22;37855;53.204;6.568;2022-11-18T04:36:51;6.70;80.50
51801;DHT22;37855;53.204;6.568;2022-11-18T04:39:17;6.60;80.50
51801;DHT22;37855;53.204;6.568;2022-11-18T04:41:43;6.60;80.60
51801;DHT22;37855;53.204;6.568;2022-11-18T04:44:30;6.70;80.60
51801;DHT22;37855;53.204;6.568;2022-11-18T04:47:03;6.70;80.60
51801;DHT22;37855;53.204;6.568;2022-11-18T04:49:34;6.70;80.60
51801;DHT22;37855;53.204;6.568;2022-11-18T04:52:04;6.70;80.50
51801;DHT22;37855;53.204;6.568;2022-11-18T04:54:30;6.70;80.50
51801;DHT22;37855;53.204;6.568;2022-11-18T04:57:00;6.70;80.30
51801;DHT22;37855;53.204;6.568;2022-11-18T04:59:27;6.70;80.20
51801;DHT22;37855;53.204;6.568;2022-11-18T05:02:12;6.70;80.30
51801;DHT22;37855;53.204;6.568;2022-11-18T05:04:38;6.70;80.30
51801;DHT22;37855;53.204;6.568;2022-11-18T05:07:05;6.60;80.20
51801;DHT22;37855;53.204;6.568;2022-11-18T05:09:32;6.60;80.30
51801;DHT22;37855;53.204;6.568;2022-11-18T05:11:58;6.60;80.40
51801;DHT22;37855;53.204;6.568;2022-11-18T05:14:42;6.60;80.40
51801;DHT22;37855;53.204;6.568;2022-11-18T05:17:08;6.60;80.20
51801;DHT22;37855;53.204;6.568;2022-11-18T05:19:36;6.50;80.20
51801;DHT22;37855;53.204;6.568;2022-11-18T05:22:02;6.50;80.30
51801;DHT22;37855;53.204;6.568;2022-11-18T05:24:28;6.40;80.50
51801;DHT22;37855;53.204;6.568;2022-11-18T05:26:55;6.40;80.60
51801;DHT22;37855;53.204;6.568;2022-11-18T05:29:21;6.40;80.70
51801;DHT22;37855;53.204;6.568;2022-11-18T05:31:48;6.50;80.80
51801;DHT22;37855;53.204;6.568;2022-11-18T05:34:17;6.50;80.80
51801;DHT22;37855;53.204;6.568;2022-11-18T05:36:43;6.50;80.80
51801;DHT22;37855;53.204;6.568;2022-11-18T05:39:19;6.60;80.70
51801;DHT22;37855;53.204;6.568;2022-11-18T05:41:47;6.60;80.60
51801;DHT22;37855;53.204;6.568;2022-11-18T05:44:33;6.50;80.50
51801;DHT22;37855;53.204;6.568;2022-11-18T05:46:59;6.50;80.60
51801;DHT22;37855;53.204;6.568;2022-11-18T05:49:25;6.60;80.60
51801;DHT22;37855;53.204;6.568;2022-11-18T05:51:50;6.60;80.50
51801;DHT22;37855;53.204;6.568;2022-11-18T05:54:18;6.50;80.50
51801;DHT22;37855;53.204;6.568;2022-11-18T05:56:44;6.60;80.50
51801;DHT22;37855;53.204;6.568;2022-11-18T05:59:10;6.60;80.50
51801;DHT22;37855;53.204;6.568;2022-11-18T06:04:10;6.60;80.50
51801;DHT22;37855;53.204;6.568;2022-11-18T06:06:38;6.50;80.30
51801;DHT22;37855;53.204;6.568;2022-11-18T06:09:05;6.50;80.20
51801;DHT22;37855;53.204;6.568;2022-11-18T06:11:37;6.40;80.40
51801;DHT22;37855;53.204;6.568;2022-11-18T06:14:16;6.40;80.50
51801;DHT22;37855;53.204;6.568;2022-11-18T06:16:48;6.40;80.50
51801;DHT22;37855;53.204;6.568;2022-11-18T06:19:15;6.30;80.70
51801;DHT22;37855;53.204;6.568;2022-11-18T06:21:42;6.30;80.70
51801;DHT22;37855;53.204;6.568;2022-11-18T06:24:08;6.40;80.80
51801;DHT22;37855;53.204;6.568;2022-11-18T06:26:37;6.40;80.80
51801;DHT22;37855;53.204;6.568;2022-11-18T06:29:06;6.40;80.80
51801;DHT22;37855;53.204;6.568;2022-11-18T06:31:40;6.40;80.70
51801;DHT22;37855;53.204;6.568;2022-11-18T06:34:10;6.50;80.70
51801;DHT22;37855;53.204;6.568;2022-11-18T06:36:35;6.40;80.60
51801;DHT22;37855;53.204;6.568;2022-11-18T06:39:04;6.40;80.50
51801;DHT22;37855;53.204;6.568;2022-11-18T06:41:31;6.40;80.70
51801;DHT22;37855;53.204;6.568;2022-11-18T06:43:56;6.40;80.70
51801;DHT22;37855;53.204;6.568;2022-11-18T06:46:22;6.30;80.70
51801;DHT22;37855;53.204;6.568;2022-11-18T06:49:06;6.30;80.80
51801;DHT22;37855;53.204;6.568;2022-11-18T06:51:32;6.40;80.80
51801;DHT22;37855;53.204;6.568;2022-11-18T06:54:06;6.40;80.80
51801;DHT22;37855;53.204;6.568;2022-11-18T06:56:48;6.40;80.70
51801;DHT22;37855;53.204;6.568;2022-11-18T06:59:15;6.40;80.80
51801;DHT22;37855;53.204;6.568;2022-11-18T07:01:50;6.40;80.70
51801;DHT22;37855;53.204;6.568;2022-11-18T07:04:17;6.40;80.60
51801;DHT22;37855;53.204;6.568;2022-11-18T07:06:43;6.40;80.50
51801;DHT22;37855;53.204;6.568;2022-11-18T07:09:08;6.40;80.60
51801;DHT22;37855;53.204;6.568;2022-11-18T07:11:40;6.40;80.60
51801;DHT22;37855;53.204;6.568;2022-11-18T07:14:18;6.40;80.50
51801;DHT22;37855;53.204;6.568;2022-11-18T07:16:52;6.30;80.40
51801;DHT22;37855;53.204;6.568;2022-11-18T07:19:18;6.30;80.50
51801;DHT22;37855;53.204;6.568;2022-11-18T07:21:47;6.20;80.40
51801;DHT22;37855;53.204;6.568;2022-11-18T07:24:16;6.20;80.60
51801;DHT22;37855;53.204;6.568;2022-11-18T07:26:41;6.20;80.60
51801;DHT22;37855;53.204;6.568;2022-11-18T07:29:07;6.20;80.60
51801;DHT22;37855;53.204;6.568;2022-11-18T07:31:35;6.20;80.60
51801;DHT22;37855;53.204;6.568;2022-11-18T07:34:03;6.20;80.70
51801;DHT22;37855;53.204;6.568;2022-11-18T07:36:29;6.20;80.80
51801;DHT22;37855;53.204;6.568;2022-11-18T07:38:57;6.20;80.80
51801;DHT22;37855;53.204;6.568;2022-11-18T07:41:25;6.20;80.60
51801;DHT22;37855;53.204;6.568;2022-11-18T07:43:54;6.20;80.50
51801;DHT22;37855;53.204;6.568;2022-11-18T07:46:32;6.10;80.40
51801;DHT22;37855;53.204;6.568;2022-11-18T07:49:01;6.10;80.40
51801;DHT22;37855;53.204;6.568;2022-11-18T07:51:47;6.00;80.60
51801;DHT22;37855;53.204;6.568;2022-11-18T07:54:13;6.00;80.80
51801;DHT22;37855;53.204;6.568;2022-11-18T07:56:50;6.10;80.90
51801;DHT22;37855;53.204;6.568;2022-11-18T07:59:15;6.10;80.80
51801;DHT22;37855;53.204;6.568;2022-11-18T08:01:41;6.10;80.70
51801;DHT22;37855;53.204;6.568;2022-11-18T08:04:09;6.20;80.60
51801;DHT22;37855;53.204;6.568;2022-11-18T08:06:37;6.20;80.40
51801;DHT22;37855;53.204;6.568;2022-11-18T08:09:04;6.20;80.30
51801;DHT22;37855;53.204;6.568;2022-11-18T08:11:30;6.20;80.30
51801;DHT22;37855;53.204;6.568;2022-11-18T08:13:55;6.20;80.10
51801;DHT22;37855;53.204;6.568;2022-11-18T08:16:23;6.20;80.00
51801;DHT22;37855;53.204;6.568;2022-11-18T08:18:52;6.20;80.00
51801;DHT22;37855;53.204;6.568;2022-11-18T08:21:20;6.20;80.10
51801;DHT22;37855;53.204;6.568;2022-11-18T08:23:55;6.20;80.00
51801;DHT22;37855;53.204;6.568;2022-11-18T08:26:21;6.20;79.90
51801;DHT22;37855;53.204;6.568;2022-11-18T08:28:50;6.20;79.90
51801;DHT22;37855;53.204;6.568;2022-11-18T08:31:22;6.20;79.80
51801;DHT22;37855;53.204;6.568;2022-11-18T08:33:55;6.10;79.70
51801;DHT22;37855;53.204;6.568;2022-11-18T08:36:40;6.10;79.80
51801;DHT22;37855;53.204;6.568;2022-11-18T08:39:09;6.10;79.90
51801;DHT22;37855;53.204;6.568;2022-11-18T08:41:41;6.10;80.10
51801;DHT22;37855;53.204;6.568;2022-11-18T08:44:10;6.10;79.90
51801;DHT22;37855;53.204;6.568;2022-11-18T08:46:40;6.00;79.70
51801;DHT22;37855;53.204;6.568;2022-11-18T08:49:05;6.00;79.90
51801;DHT22;37855;53.204;6.568;2022-11-18T08:51:31;6.00;79.90
51801;DHT22;37855;53.204;6.568;2022-11-18T08:53:58;6.00;79.90
51801;DHT22;37855;53.204;6.568;2022-11-18T08:56:24;6.10;79.90
51801;DHT22;37855;53.204;6.568;2022-11-18T08:58:51;6.10;80.00
51801;DHT22;37855;53.204;6.568;2022-11-18T09:01:16;6.10;79.80
51801;DHT22;37855;53.204;6.568;2022-11-18T09:03:42;6.10;79.60
51801;DHT22;37855;53.204;6.568;2022-11-18T09:06:21;6.10;79.60
51801;DHT22;37855;53.204;6.568;2022-11-18T09:08:48;6.10;79.50
51801;DHT22;37855;53.204;6.568;2022-11-18T09:11:21;6.00;79.50
51801;DHT22;37855;53.204;6.568;2022-11-18T09:13:52;6.10;79.50
51801;DHT22;37855;53.204;6.568;2022-11-18T09:16:18;6.00;79.50
51801;DHT22;37855;53.204;6.568;2022-11-18T09:19:03;6.00;79.40
51801;DHT22;37855;53.204;6.568;2022-11-18T09:21:29;5.90;79.50
51801;DHT22;37855;53.204;6.568;2022-11-18T09:23:54;5.90;79.60
51801;DHT22;37855;53.204;6.568;2022-11-18T09:26:24;6.00;79.40
51801;DHT22;37855;53.204;6.568;2022-11-18T09:28:53;5.90;79.10
51801;DHT22;37855;53.204;6.568;2022-11-18T09:31:19;6.00;79.30
51801;DHT22;37855;53.204;6.568;2022-11-18T09:33:45;6.00;79.20
51801;DHT22;37855;53.204;6.568;2022-11-18T09:36:22;6.00;79.00
51801;DHT22;37855;53.204;6.568;2022-11-18T09:38:48;5.90;78.80
51801;DHT22;37855;53.204;6.568;2022-11-18T09:49:01;6.00;78.90
51801;DHT22;37855;53.204;6.568;2022-11-18T09:51:49;6.00;78.80
51801;DHT22;37855;53.204;6.568;2022-11-18T09:54:23;5.90;78.90
51801;DHT22;37855;53.204;6.568;2022-11-18T09:56:59;5.90;79.00
51801;DHT22;37855;53.204;6.568;2022-11-18T09:59:29;5.90;79.00
51801;DHT22;37855;53.204;6.568;2022-11-18T10:02:29;5.90;79.00
51801;DHT22;37855;53.204;6.568;2022-11-18T10:05:13;6.00;79.00
51801;DHT22;37855;53.204;6.568;2022-11-18T10:08:14;5.90;78.80
51801;DHT22;37855;53.204;6.568;2022-11-18T10:13:54;6.00;79.20
51801;DHT22;37855;53.204;6.568;2022-11-18T10:22:00;6.10;78.90
51801;DHT22;37855;53.204;6.568;2022-11-18T10:24:33;6.10;78.90
51801;DHT22;37855;53.204;6.568;2022-11-18T10:27:00;6.10;78.70
51801;DHT22;37855;53.204;6.568;2022-11-18T10:29:26;6.10;78.80
51801;DHT22;37855;53.204;6.568;2022-11-18T10:32:11;6.00;78.70
51801;DHT22;37855;53.204;6.568;2022-11-18T10:34:47;6.00;78.80
51801;DHT22;37855;53.204;6.568;2022-11-18T10:37:32;6.00;78.70
51801;DHT22;37855;53.204;6.568;2022-11-18T10:40:04;6.00;79.10
51801;DHT22;37855;53.204;6.568;2022-11-18T10:42:40;6.00;79.10
51801;DHT22;37855;53.204;6.568;2022-11-18T10:50:40;6.00;78.50
51801;DHT22;37855;53.204;6.568;2022-11-18T10:56:01;5.80;78.90
51801;DHT22;37855;53.204;6.568;2022-11-18T10:58:29;5.70;78.90
51801;DHT22;37855;53.204;6.568;2022-11-18T11:01:33;5.70;79.30
51801;DHT22;37855;53.204;6.568;2022-11-18T11:04:12;5.60;79.70
51801;DHT22;37855;53.204;6.568;2022-11-18T11:06:41;5.60;79.10
51801;DHT22;37855;53.204;6.568;2022-11-18T11:09:30;5.60;79.50
51801;DHT22;37855;53.204;6.568;2022-11-18T11:12:02;5.60;79.10
51801;DHT22;37855;53.204;6.568;2022-11-18T11:14:55;5.50;79.30
51801;DHT22;37855;53.204;6.568;2022-11-18T11:17:44;5.30;79.80
51801;DHT22;37855;53.204;6.568;2022-11-18T11:20:22;5.30;80.00
51801;DHT22;37855;53.204;6.568;2022-11-18T11:22:48;5.40;80.20
51801;DHT22;37855;53.204;6.568;2022-11-18T11:35:29;5.60;79.70
51801;DHT22;37855;53.204;6.568;2022-11-18T11:37:46;5.50;79.20
51801;DHT22;37855;53.204;6.568;2022-11-18T11:40:29;5.30;79.30
51801;DHT22;37855;53.204;6.568;2022-11-18T11:49:01;5.20;79.80
51801;DHT22;37855;53.204;6.568;2022-11-18T11:51:54;5.10;79.40
51801;DHT22;37855;53.204;6.568;2022-11-18T11:57:19;5.00;80.00
51801;DHT22;37855;53.204;6.568;2022-11-18T12:00:04;5.00;80.10
51801;DHT22;37855;53.204;6.568;2022-11-18T12:05:29;5.00;80.00
51801;DHT22;37855;53.204;6.568;2022-11-18T12:08:26;5.00;80.10
51801;DHT22;37855;53.204;6.568;2022-11-18T12:11:19;5.00;80.20
51801;DHT22;37855;53.204;6.568;2022-11-18T12:14:24;5.10;79.90
51801;DHT22;37855;53.204;6.568;2022-11-18T12:19:48;5.10;79.90
51801;DHT22;37855;53.204;6.568;2022-11-18T12:22:22;5.10;79.90
51801;DHT22;37855;53.204;6.568;2022-11-18T12:24:49;5.10;79.50
51801;DHT22;37855;53.204;6.568;2022-11-18T12:29:56;5.10;78.80
51801;DHT22;37855;53.204;6.568;2022-11-18T12:32:38;5.00;78.90
51801;DHT22;37855;53.204;6.568;2022-11-18T12:37:45;4.80;79.10
51801;DHT22;37855;53.204;6.568;2022-11-18T12:40:44;4.90;79.30
51801;DHT22;37855;53.204;6.568;2022-11-18T12:54:59;4.80;79.20
51801;DHT22;37855;53.204;6.568;2022-11-18T12:57:36;4.80;79.10
51801;DHT22;37855;53.204;6.568;2022-11-18T13:02:41;4.80;78.90
51801;DHT22;37855;53.204;6.568;2022-11-18T13:05:56;4.80;79.20
51801;DHT22;37855;53.204;6.568;2022-11-18T13:08:22;4.80;79.10
51801;DHT22;37855;53.204;6.568;2022-11-18T13:11:06;4.80;79.20
51801;DHT22;37855;53.204;6.568;2022-11-18T13:13:52;4.80;79.10
51801;DHT22;37855;53.204;6.568;2022-11-18T13:16:50;4.80;79.20
51801;DHT22;37855;53.204;6.568;2022-11-18T13:19:34;4.80;79.00
51801;DHT22;37855;53.204;6.568;2022-11-18T13:22:04;4.80;79.10
51801;DHT22;37855;53.204;6.568;2022-11-18T13:24:58;4.80;78.80
51801;DHT22;37855;53.204;6.568;2022-11-18T13:30:12;4.70;78.60
51801;DHT22;37855;53.204;6.568;2022-11-18T13:32:45;4.60;78.50
51801;DHT22;37855;53.204;6.568;2022-11-18T13:35:20;4.50;78.70
51801;DHT22;37855;53.204;6.568;2022-11-18T13:37:56;4.50;78.80
51801;DHT22;37855;53.204;6.568;2022-11-18T13:40:29;4.40;79.00
51801;DHT22;37855;53.204;6.568;2022-11-18T13:42:55;4.40;79.10
51801;DHT22;37855;53.204;6.568;2022-11-18T13:45:25;4.30;79.30
51801;DHT22;37855;53.204;6.568;2022-11-18T13:48:15;4.40;79.30
51801;DHT22;37855;53.204;6.568;2022-11-18T13:50:43;4.30;79.40
51801;DHT22;37855;53.204;6.568;2022-11-18T13:53:34;4.30;78.90
51801;DHT22;37855;53.204;6.568;2022-11-18T13:56:06;4.20;79.10
51801;DHT22;37855;53.204;6.568;2022-11-18T13:58:43;4.20;79.30
51801;DHT22;37855;53.204;6.568;2022-11-18T14:01:18;4.10;79.00
51801;DHT22;37855;53.204;6.568;2022-11-18T14:03:53;4.00;79.10
51801;DHT22;37855;53.204;6.568;2022-11-18T14:06:28;4.00;79.60
51801;DHT22;37855;53.204;6.568;2022-11-18T14:11:41;4.00;79.20
51801;DHT22;37855;53.204;6.568;2022-11-18T14:14:09;4.00;79.70
51801;DHT22;37855;53.204;6.568;2022-11-18T14:16:41;4.00;79.50
51801;DHT22;37855;53.204;6.568;2022-11-18T14:19:29;4.00;79.30
51801;DHT22;37855;53.204;6.568;2022-11-18T14:22:03;4.00;79.40
51801;DHT22;37855;53.204;6.568;2022-11-18T14:24:29;4.00;79.80
51801;DHT22;37855;53.204;6.568;2022-11-18T14:26:55;4.00;79.90
51801;DHT22;37855;53.204;6.568;2022-11-18T14:29:20;4.00;79.70
51801;DHT22;37855;53.204;6.568;2022-11-18T14:34:35;4.00;79.60
51801;DHT22;37855;53.204;6.568;2022-11-18T14:37:01;4.10;79.70
51801;DHT22;37855;53.204;6.568;2022-11-18T14:39:29;4.10;79.50
51801;DHT22;37855;53.204;6.568;2022-11-18T14:41:56;4.20;79.30
51801;DHT22;37855;53.204;6.568;2022-11-18T14:44:26;4.10;79.40
51801;DHT22;37855;53.204;6.568;2022-11-18T14:47:04;4.10;79.30
51801;DHT22;37855;53.204;6.568;2022-11-18T14:49:31;4.10;79.20
51801;DHT22;37855;53.204;6.568;2022-11-18T14:52:14;4.10;79.00
51801;DHT22;37855;53.204;6.568;2022-11-18T14:54:52;4.10;79.20
51801;DHT22;37855;53.204;6.568;2022-11-18T14:57:18;4.10;79.20
51801;DHT22;37855;53.204;6.568;2022-11-18T14:59:44;4.10;79.00
51801;DHT22;37855;53.204;6.568;2022-11-18T15:02:25;4.20;79.10
51801;DHT22;37855;53.204;6.568;2022-11-18T15:04:56;4.10;79.00
51801;DHT22;37855;53.204;6.568;2022-11-18T15:07:28;4.10;79.20
51801;DHT22;37855;53.204;6.568;2022-11-18T15:09:54;4.10;79.30
51801;DHT22;37855;53.204;6.568;2022-11-18T15:12:23;4.10;79.30
51801;DHT22;37855;53.204;6.568;2022-11-18T15:14:48;4.10;79.30
51801;DHT22;37855;53.204;6.568;2022-11-18T15:17:29;4.10;79.20
51801;DHT22;37855;53.204;6.568;2022-11-18T15:19:56;4.00;79.00
51801;DHT22;37855;53.204;6.568;2022-11-18T15:22:23;3.90;79.20
51801;DHT22;37855;53.204;6.568;2022-11-18T15:24:48;3.90;79.60
51801;DHT22;37855;53.204;6.568;2022-11-18T15:27:14;3.90;79.50
51801;DHT22;37855;53.204;6.568;2022-11-18T15:29:40;3.90;79.40
51801;DHT22;37855;53.204;6.568;2022-11-18T15:32:06;3.90;79.50
51801;DHT22;37855;53.204;6.568;2022-11-18T15:34:32;3.80;79.20
51801;DHT22;37855;53.204;6.568;2022-11-18T15:36:58;3.80;79.30
51801;DHT22;37855;53.204;6.568;2022-11-18T15:39:24;3.80;79.10
51801;DHT22;37855;53.204;6.568;2022-11-18T15:42:03;3.80;79.50
51801;DHT22;37855;53.204;6.568;2022-11-18T15:44:29;3.80;79.50
51801;DHT22;37855;53.204;6.568;2022-11-18T15:46:54;3.70;79.50
51801;DHT22;37855;53.204;6.568;2022-11-18T15:49:21;3.70;79.60
51801;DHT22;37855;53.204;6.568;2022-11-18T15:51:47;3.70;79.50
51801;DHT22;37855;53.204;6.568;2022-11-18T15:54:13;3.70;79.30
51801;DHT22;37855;53.204;6.568;2022-11-18T15:56:39;3.70;79.20
51801;DHT22;37855;53.204;6.568;2022-11-18T15:59:09;3.70;79.00
51801;DHT22;37855;53.204;6.568;2022-11-18T16:01:41;3.70;79.00
51801;DHT22;37855;53.204;6.568;2022-11-18T16:04:09;3.60;78.90
51801;DHT22;37855;53.204;6.568;2022-11-18T16:06:44;3.60;79.10
51801;DHT22;37855;53.204;6.568;2022-11-18T16:09:11;3.60;79.30
51801;DHT22;37855;53.204;6.568;2022-11-18T16:11:37;3.60;79.30
51801;DHT22;37855;53.204;6.568;2022-11-18T16:14:22;3.70;78.90
51801;DHT22;37855;53.204;6.568;2022-11-18T16:16:50;3.50;78.80
51801;DHT22;37855;53.204;6.568;2022-11-18T16:19:18;3.40;78.60
51801;DHT22;37855;53.204;6.568;2022-11-18T16:21:53;3.30;79.00
51801;DHT22;37855;53.204;6.568;2022-11-18T16:24:21;3.30;79.20
51801;DHT22;37855;53.204;6.568;2022-11-18T16:26:50;3.30;78.70
51801;DHT22;37855;53.204;6.568;2022-11-18T16:29:16;3.30;79.10
51801;DHT22;37855;53.204;6.568;2022-11-18T16:31:43;3.30;78.80
51801;DHT22;37855;53.204;6.568;2022-11-18T16:34:18;3.30;78.90
51801;DHT22;37855;53.204;6.568;2022-11-18T16:36:47;3.20;78.80
51801;DHT22;37855;53.204;6.568;2022-11-18T16:39:18;3.20;79.00
51801;DHT22;37855;53.204;6.568;2022-11-18T16:41:57;3.20;79.20
51801;DHT22;37855;53.204;6.568;2022-11-18T16:44:23;3.20;78.70
51801;DHT22;37855;53.204;6.568;2022-11-18T16:46:56;3.20;78.60
51801;DHT22;37855;53.204;6.568;2022-11-18T16:49:25;3.20;79.20
51801;DHT22;37855;53.204;6.568;2022-11-18T16:51:55;3.40;79.40
51801;DHT22;37855;53.204;6.568;2022-11-18T16:54:26;3.40;78.90
51801;DHT22;37855;53.204;6.568;2022-11-18T16:57:05;3.40;78.70
51801;DHT22;37855;53.204;6.568;2022-11-18T16:59:31;3.40;78.40
51801;DHT22;37855;53.204;6.568;2022-11-18T17:01:58;3.40;78.40
51801;DHT22;37855;53.204;6.568;2022-11-18T17:04:26;3.30;78.50
51801;DHT22;37855;53.204;6.568;2022-11-18T17:06:52;3.30;78.60
51801;DHT22;37855;53.204;6.568;2022-11-18T17:09:30;3.30;78.50
51801;DHT22;37855;53.204;6.568;2022-11-18T17:11:57;3.30;78.70
51801;DHT22;37855;53.204;6.568;2022-11-18T17:14:28;3.30;78.50
51801;DHT22;37855;53.204;6.568;2022-11-18T17:17:06;3.20;78.90
51801;DHT22;37855;53.204;6.568;2022-11-18T17:19:32;3.30;79.20
51801;DHT22;37855;53.204;6.568;2022-11-18T17:21:57;3.30;78.70
51801;DHT22;37855;53.204;6.568;2022-11-18T17:24:23;3.30;78.40
51801;DHT22;37855;53.204;6.568;2022-11-18T17:26:51;3.30;78.60
51801;DHT22;37855;53.204;6.568;2022-11-18T17:29:20;3.20;78.10
51801;DHT22;37855;53.204;6.568;2022-11-18T17:31:46;3.10;78.10
51801;DHT22;37855;53.204;6.568;2022-11-18T17:34:13;3.00;78.10
51801;DHT22;37855;53.204;6.568;2022-11-18T17:36:39;2.90;78.10
51801;DHT22;37855;53.204;6.568;2022-11-18T17:39:10;2.80;78.30
51801;DHT22;37855;53.204;6.568;2022-11-18T17:41:36;2.80;78.40
51801;DHT22;37855;53.204;6.568;2022-11-18T17:44:20;2.80;78.50
51801;DHT22;37855;53.204;6.568;2022-11-18T17:46:48;2.70;78.90
51801;DHT22;37855;53.204;6.568;2022-11-18T17:49:16;2.70;79.40
51801;DHT22;37855;53.204;6.568;2022-11-18T17:51:46;2.70;79.10
51801;DHT22;37855;53.204;6.568;2022-11-18T17:54:12;2.70;79.10
51801;DHT22;37855;53.204;6.568;2022-11-18T17:56:40;2.80;78.70